Time;durP1;ratioP1;P1;durP2;ratioP2;P2;SDS_P1;SDS_P2;PMS_P1;PMS_P2;Temp;Humidity;BMP_temperature;BMP_pressure;BME280_temperature;BME280_humidity;BME280_pressure;Samples;Min_cycle;Max_cycle;Signal;HPM_P1;HPM_P2
2022/03/14 00:00:51;;;;;;;16.98;8.65;;;11.00;65.90;;;;;;5051060;28;20033;-81
2022/03/14 00:03:17;;;;;;;13.90;8.10;;;11.00;67.40;;;;;;5050528;28;20041;-81
2022/03/14 00:05:43;;;;;;;12.73;8.73;;;11.00;68.60;;;;;;5047749;28;20040;-82
2022/03/14 00:08:09;;;;;;;12.13;8.23;;;11.00;70.30;;;;;;5033966;28;20041;-82
2022/03/14 00:10:35;;;;;;;11.35;7.63;;;11.00;72.00;;;;;;5050509;28;20024;-81
2022/03/14 00:13:00;;;;;;;11.70;7.38;;;11.00;73.80;;;;;;5050147;28;20581;-82
2022/03/14 00:15:32;;;;;;;10.98;7.00;;;11.00;76.40;;;;;;5050267;28;20045;-82
2022/03/14 00:18:01;;;;;;;10.60;5.97;;;11.00;78.60;;;;;;5050667;28;20048;-82
2022/03/14 00:20:27;;;;;;;9.98;5.63;;;11.00;80.10;;;;;;5033945;28;20048;-82
2022/03/14 00:22:53;;;;;;;9.70;5.07;;;11.10;81.70;;;;;;5033790;28;20048;-82
2022/03/14 00:25:19;;;;;;;9.65;5.25;;;11.10;84.60;;;;;;5050083;28;20414;-82
2022/03/14 00:27:45;;;;;;;9.48;5.07;;;11.10;86.40;;;;;;5049890;28;20414;-82
2022/03/14 00:30:12;;;;;;;8.40;4.93;;;11.10;87.60;;;;;;5050322;28;20058;-81
2022/03/14 00:32:41;;;;;;;8.95;4.30;;;11.10;88.30;;;;;;5049967;28;21614;-81
2022/03/14 00:35:08;;;;;;;8.30;4.70;;;11.10;89.50;;;;;;5048520;28;20482;-82
2022/03/14 00:37:35;;;;;;;8.32;4.30;;;11.10;90.20;;;;;;5033439;28;20032;-82
2022/03/14 00:40:02;;;;;;;8.07;4.45;;;11.20;90.30;;;;;;5049620;28;20531;-81
2022/03/14 00:42:28;;;;;;;10.07;4.45;;;11.20;91.00;;;;;;5049858;28;20090;-82
2022/03/14 00:44:54;;;;;;;8.13;4.40;;;11.20;91.10;;;;;;5050058;28;20040;-81
2022/03/14 00:47:21;;;;;;;8.60;3.90;;;11.20;91.40;;;;;;5033028;28;20091;-82
2022/03/14 00:49:47;;;;;;;8.43;4.03;;;11.20;91.40;;;;;;5049696;28;20029;-82
2022/03/14 00:52:16;;;;;;;7.75;4.13;;;11.30;91.60;;;;;;5033338;28;20036;-81
2022/03/14 00:54:42;;;;;;;7.93;3.67;;;11.30;91.80;;;;;;5033259;28;20442;-82
2022/03/14 00:57:07;;;;;;;8.90;4.38;;;11.30;92.00;;;;;;5049773;28;20508;-81
2022/03/14 00:59:34;;;;;;;8.27;4.10;;;11.30;92.20;;;;;;5049545;28;20036;-82
2022/03/14 01:01:59;;;;;;;7.72;3.97;;;11.30;92.20;;;;;;5049265;28;20071;-82
2022/03/14 01:04:25;;;;;;;8.82;3.90;;;11.30;92.60;;;;;;5049515;28;20033;-82
2022/03/14 01:06:51;;;;;;;7.28;3.67;;;11.30;92.60;;;;;;5049224;28;20041;-82
2022/03/14 01:09:17;;;;;;;7.50;3.85;;;11.40;92.50;;;;;;5049435;28;20044;-82
2022/03/14 01:11:43;;;;;;;8.60;3.72;;;11.40;92.60;;;;;;5049667;28;20029;-82
2022/03/14 01:14:09;;;;;;;7.25;3.53;;;11.40;92.60;;;;;;5032790;28;20610;-82
2022/03/14 01:16:35;;;;;;;7.63;3.75;;;11.40;92.60;;;;;;5049531;28;20047;-82
2022/03/14 01:19:00;;;;;;;7.22;3.38;;;11.40;92.40;;;;;;5049400;28;20530;-81
2022/03/14 01:21:29;;;;;;;7.97;3.78;;;11.40;92.30;;;;;;5033091;28;20032;-82
2022/03/14 01:23:55;;;;;;;7.90;3.70;;;11.50;92.40;;;;;;5049439;28;20060;-82
2022/03/14 01:26:21;;;;;;;8.45;3.70;;;11.50;92.60;;;;;;5032573;28;20041;-81
2022/03/14 01:28:48;;;;;;;6.82;3.15;;;11.50;92.80;;;;;;5049734;28;20057;-82
2022/03/14 01:31:14;;;;;;;8.13;3.40;;;11.50;92.80;;;;;;5049796;28;20048;-82
2022/03/14 01:33:39;;;;;;;8.43;4.05;;;11.50;93.00;;;;;;5049719;28;20581;-82
2022/03/14 01:36:05;;;;;;;7.10;3.80;;;11.50;93.00;;;;;;5049748;28;20151;-81
2022/03/14 01:38:31;;;;;;;6.85;3.17;;;11.50;92.70;;;;;;5049513;28;20051;-82
2022/03/14 01:40:57;;;;;;;7.35;3.67;;;11.50;93.20;;;;;;5032611;28;20041;-82
2022/03/14 01:43:25;;;;;;;7.50;3.60;;;11.50;93.60;;;;;;5033145;28;20131;-81
2022/03/14 01:45:55;;;;;;;8.48;3.33;;;11.50;93.40;;;;;;5049196;28;20124;-82
2022/03/14 01:48:20;;;;;;;7.15;3.30;;;11.50;93.30;;;;;;5049664;28;20036;-82
2022/03/14 01:50:46;;;;;;;7.47;3.38;;;11.50;93.00;;;;;;5049489;28;20494;-82
2022/03/14 01:53:12;;;;;;;7.18;3.30;;;11.50;93.30;;;;;;5048821;28;20482;-81
2022/03/14 01:55:38;;;;;;;7.10;3.25;;;11.50;93.20;;;;;;5048584;28;20041;-82
2022/03/14 01:58:04;;;;;;;6.45;2.90;;;11.50;93.30;;;;;;5049383;28;20090;-82
2022/03/14 02:00:30;;;;;;;6.85;3.42;;;11.50;93.40;;;;;;5049365;28;20067;-82
2022/03/14 02:02:55;;;;;;;7.15;3.38;;;11.50;93.90;;;;;;5049131;28;20044;-82
2022/03/14 02:05:21;;;;;;;7.53;3.30;;;11.50;93.90;;;;;;5032748;28;20041;-82
2022/03/14 02:07:47;;;;;;;6.50;3.10;;;11.50;94.10;;;;;;5048820;28;20037;-82
2022/03/14 02:10:12;;;;;;;7.32;3.30;;;11.50;94.20;;;;;;5049445;28;20040;-81
2022/03/14 02:12:43;;;;;;;6.93;3.28;;;11.50;94.00;;;;;;5033138;28;20118;-82
2022/03/14 02:15:09;;;;;;;7.28;2.85;;;11.50;94.00;;;;;;5036618;28;20533;-82
2022/03/14 02:17:34;;;;;;;6.78;3.58;;;11.50;94.00;;;;;;5053254;28;20055;-82
2022/03/14 02:20:00;;;;;;;7.40;3.30;;;11.50;94.20;;;;;;5052685;28;20490;-82
2022/03/14 02:22:26;;;;;;;7.15;3.17;;;11.50;94.30;;;;;;5052847;28;20432;-82
2022/03/14 02:24:52;;;;;;;6.70;2.80;;;11.50;94.30;;;;;;5053025;28;20490;-82
2022/03/14 02:27:19;;;;;;;6.40;3.00;;;11.50;94.40;;;;;;5036312;28;20045;-82
2022/03/14 02:29:45;;;;;;;7.45;3.58;;;11.50;94.50;;;;;;5052890;28;20044;-82
2022/03/14 02:32:11;;;;;;;7.53;3.38;;;11.50;94.80;;;;;;5052689;28;20394;-82
2022/03/14 02:34:37;;;;;;;7.57;3.40;;;11.50;94.80;;;;;;5052788;28;20037;-82
2022/03/14 02:37:04;;;;;;;7.50;3.95;;;11.50;94.90;;;;;;5036022;28;20505;-82
2022/03/14 02:39:32;;;;;;;7.90;3.55;;;11.50;95.30;;;;;;5052595;28;20048;-82
2022/03/14 02:41:59;;;;;;;7.68;3.10;;;11.50;95.30;;;;;;5052709;28;20143;-82
2022/03/14 02:44:25;;;;;;;6.18;3.00;;;11.50;95.40;;;;;;5035979;28;20041;-82
2022/03/14 02:46:50;;;;;;;6.45;3.15;;;11.50;95.50;;;;;;5035722;28;20059;-82
2022/03/14 02:49:16;;;;;;;6.32;2.95;;;11.50;95.80;;;;;;5052321;28;20037;-82
2022/03/14 02:51:42;;;;;;;6.60;2.97;;;11.40;96.20;;;;;;5052525;28;20068;-82
2022/03/14 02:54:09;;;;;;;6.40;2.80;;;11.50;96.40;;;;;;5052363;28;20037;-81
2022/03/14 02:56:39;;;;;;;7.22;2.80;;;11.40;96.60;;;;;;5035665;28;20055;-82
2022/03/14 02:59:06;;;;;;;6.13;2.63;;;11.40;96.70;;;;;;5035721;28;20518;-82
2022/03/14 03:01:32;;;;;;;6.35;2.55;;;11.40;96.80;;;;;;5052680;28;20410;-82
2022/03/14 03:03:58;;;;;;;5.47;2.33;;;11.40;96.80;;;;;;5052165;28;20517;-82
2022/03/14 03:06:23;;;;;;;5.82;2.58;;;11.40;96.90;;;;;;5051786;28;20037;-82
2022/03/14 03:08:50;;;;;;;5.15;2.25;;;11.40;97.10;;;;;;5052153;28;20511;-82
2022/03/14 03:11:16;;;;;;;5.25;2.15;;;11.50;97.00;;;;;;5035465;28;20037;-82
2022/03/14 03:13:42;;;;;;;6.28;2.40;;;11.50;96.60;;;;;;5035790;28;20060;-82
2022/03/14 03:16:09;;;;;;;5.20;2.30;;;11.50;96.60;;;;;;5051365;28;20169;-82
2022/03/14 03:18:35;;;;;;;5.15;2.13;;;11.50;96.40;;;;;;5051414;28;20048;-82
2022/03/14 03:21:02;;;;;;;5.97;2.60;;;11.60;96.50;;;;;;5051758;28;20056;-82
2022/03/14 03:23:28;;;;;;;6.28;2.80;;;11.60;96.30;;;;;;5051533;28;20094;-82
2022/03/14 03:25:54;;;;;;;5.35;2.40;;;11.60;96.40;;;;;;5035100;28;20119;-82
2022/03/14 03:28:19;;;;;;;7.25;2.72;;;11.60;96.50;;;;;;5051442;28;20653;-82
2022/03/14 03:30:45;;;;;;;6.30;2.78;;;11.50;96.50;;;;;;5051948;28;20043;-82
2022/03/14 03:33:11;;;;;;;6.22;2.80;;;11.50;96.40;;;;;;5034891;28;20045;-82
2022/03/14 03:35:36;;;;;;;6.35;2.70;;;11.50;96.40;;;;;;5052030;28;20040;-82
2022/03/14 03:38:02;;;;;;;6.22;2.60;;;11.60;96.40;;;;;;5035078;28;20041;-82
2022/03/14 03:40:28;;;;;;;6.78;2.90;;;11.50;96.30;;;;;;5034699;28;20048;-82
2022/03/14 03:42:53;;;;;;;6.55;2.80;;;11.50;96.30;;;;;;5051494;28;20139;-82
2022/03/14 03:45:19;;;;;;;6.50;2.97;;;11.60;96.20;;;;;;5034970;28;20052;-82
2022/03/14 03:47:44;;;;;;;6.30;2.95;;;11.50;96.30;;;;;;5051167;28;20036;-82
2022/03/14 03:50:10;;;;;;;5.95;2.90;;;11.50;96.40;;;;;;5051435;28;20452;-82
2022/03/14 03:52:36;;;;;;;7.00;3.08;;;11.50;96.30;;;;;;5051314;28;20081;-81
2022/03/14 03:55:03;;;;;;;6.22;2.80;;;11.50;96.50;;;;;;5050470;28;20404;-82
2022/03/14 03:57:30;;;;;;;6.20;2.72;;;11.50;96.40;;;;;;5051136;28;20052;-82
2022/03/14 03:59:56;;;;;;;6.45;2.90;;;11.50;96.80;;;;;;5051187;28;20045;-82
2022/03/14 04:02:22;;;;;;;7.00;2.95;;;11.50;96.60;;;;;;5034513;28;20037;-82
2022/03/14 04:04:49;;;;;;;6.13;2.80;;;11.50;96.50;;;;;;5034452;28;20045;-82
2022/03/14 04:07:19;;;;;;;6.60;3.10;;;11.50;96.60;;;;;;5034198;28;20494;-82
2022/03/14 04:09:46;;;;;;;6.88;2.95;;;11.50;96.70;;;;;;5034230;28;20040;-82
2022/03/14 04:12:12;;;;;;;6.47;2.70;;;11.40;96.60;;;;;;5050974;28;20072;-82
2022/03/14 04:14:38;;;;;;;6.93;3.20;;;11.40;96.80;;;;;;5050658;28;20095;-82
2022/03/14 04:17:04;;;;;;;8.90;3.67;;;11.50;96.80;;;;;;5050798;28;20041;-82
2022/03/14 04:19:30;;;;;;;7.47;3.30;;;11.40;96.90;;;;;;5033972;28;20127;-82
2022/03/14 04:21:56;;;;;;;6.47;3.03;;;11.40;96.90;;;;;;5050779;28;20154;-82
2022/03/14 04:24:22;;;;;;;6.85;3.33;;;11.40;96.90;;;;;;5033934;28;20041;-82
2022/03/14 04:26:48;;;;;;;6.68;2.85;;;11.40;97.10;;;;;;5033767;28;20037;-82
2022/03/14 04:29:15;;;;;;;5.70;2.78;;;11.40;97.20;;;;;;5033851;28;20043;-82
2022/03/14 04:31:41;;;;;;;7.15;3.08;;;11.40;97.10;;;;;;5050591;28;20128;-82
2022/03/14 04:34:07;;;;;;;7.30;2.90;;;11.40;97.40;;;;;;5034180;28;20047;-81
2022/03/14 04:36:32;;;;;;;6.70;2.97;;;11.40;97.60;;;;;;5049714;28;20426;-82
2022/03/14 04:38:58;;;;;;;7.05;3.20;;;11.40;97.80;;;;;;5050595;28;20045;-82
2022/03/14 04:41:23;;;;;;;8.15;3.22;;;11.40;98.00;;;;;;5050363;28;20067;-82
2022/03/14 04:43:49;;;;;;;6.15;2.85;;;11.30;98.50;;;;;;5050099;28;20634;-82
2022/03/14 04:46:15;;;;;;;7.03;3.38;;;11.40;98.40;;;;;;5050047;28;20048;-82
2022/03/14 04:48:40;;;;;;;6.88;3.30;;;11.30;98.70;;;;;;5050249;28;20036;-82
2022/03/14 04:51:07;;;;;;;6.82;3.17;;;11.30;98.90;;;;;;5050264;28;20033;-82
2022/03/14 04:53:35;;;;;;;7.25;3.35;;;11.30;98.90;;;;;;5033602;28;20051;-81
2022/03/14 04:56:01;;;;;;;6.30;3.13;;;11.30;99.00;;;;;;5033422;28;20130;-81
2022/03/14 04:58:27;;;;;;;7.90;3.42;;;11.20;99.00;;;;;;5050066;28;20080;-82
2022/03/14 05:00:54;;;;;;;7.00;3.33;;;11.20;99.10;;;;;;5050257;28;20486;-82
2022/03/14 05:03:19;;;;;;;7.18;3.13;;;11.20;99.20;;;;;;5049840;28;20048;-82
2022/03/14 05:05:45;;;;;;;6.47;3.10;;;11.20;99.30;;;;;;5050083;28;20045;-82
2022/03/14 05:08:10;;;;;;;7.32;3.22;;;11.20;99.40;;;;;;5033278;28;20478;-82
2022/03/14 05:10:36;;;;;;;7.38;2.90;;;11.20;99.40;;;;;;5033436;28;20090;-82
2022/03/14 05:13:02;;;;;;;6.95;3.08;;;11.20;99.50;;;;;;5050239;28;20037;-82
2022/03/14 05:15:29;;;;;;;7.40;3.10;;;11.20;99.70;;;;;;5050178;28;20045;-82
2022/03/14 05:17:55;;;;;;;7.70;3.45;;;11.20;99.90;;;;;;5050022;28;20048;-82
2022/03/14 05:20:21;;;;;;;7.68;3.53;;;11.20;99.90;;;;;;5033333;28;20393;-82
2022/03/14 05:22:48;;;;;;;6.72;3.15;;;11.20;99.90;;;;;;5049951;28;20040;-82
2022/03/14 05:25:16;;;;;;;6.63;3.20;;;11.20;99.90;;;;;;5033163;28;20092;-82
2022/03/14 05:27:42;;;;;;;7.35;3.20;;;11.10;99.90;;;;;;5032779;28;20037;-82
2022/03/14 05:30:08;;;;;;;7.30;3.42;;;11.10;99.90;;;;;;5049652;28;20037;-82
2022/03/14 05:32:42;;;;;;;7.22;3.20;;;11.00;99.90;;;;;;5049561;28;20845;-82
2022/03/14 05:35:08;;;;;;;6.50;3.15;;;11.00;99.90;;;;;;5049749;28;20449;-82
2022/03/14 05:37:34;;;;;;;6.93;3.30;;;11.00;99.90;;;;;;5049643;28;20421;-82
2022/03/14 05:40:00;;;;;;;7.05;3.40;;;10.90;99.90;;;;;;5049632;28;20037;-82
2022/03/14 05:42:26;;;;;;;7.00;3.50;;;10.90;99.90;;;;;;5049490;28;20489;-82
2022/03/14 05:44:52;;;;;;;7.55;3.40;;;10.90;99.90;;;;;;5032981;28;20429;-82
2022/03/14 05:47:19;;;;;;;7.25;3.60;;;10.90;99.90;;;;;;5034492;28;20045;-82
2022/03/14 05:49:45;;;;;;;8.05;3.60;;;10.80;99.90;;;;;;5053980;28;20090;-82
2022/03/14 05:52:11;;;;;;;7.40;3.55;;;10.80;99.90;;;;;;5053121;28;20486;-81
2022/03/14 05:54:38;;;;;;;7.15;3.45;;;10.80;99.90;;;;;;5052860;28;20072;-82
2022/03/14 05:57:04;;;;;;;8.02;4.22;;;10.80;99.90;;;;;;5053412;28;20049;-82
2022/03/14 05:59:29;;;;;;;8.18;3.60;;;10.70;99.90;;;;;;5053806;28;20041;-82
2022/03/14 06:01:55;;;;;;;8.00;3.97;;;10.70;99.90;;;;;;5053636;28;20438;-82
2022/03/14 06:04:21;;;;;;;7.60;3.72;;;10.70;99.90;;;;;;5052998;28;20052;-81
2022/03/14 06:06:47;;;;;;;8.35;3.88;;;10.70;99.90;;;;;;5049636;28;20040;-81
2022/03/14 06:09:13;;;;;;;7.47;4.22;;;10.60;99.90;;;;;;5056424;28;20469;-81
2022/03/14 06:11:39;;;;;;;8.93;3.85;;;10.60;99.90;;;;;;5073200;28;20044;-81
2022/03/14 06:14:05;;;;;;;8.77;4.03;;;10.60;99.90;;;;;;5040821;28;20418;-81
2022/03/14 06:16:31;;;;;;;7.68;3.50;;;10.60;99.90;;;;;;5036401;28;20509;-82
2022/03/14 06:18:57;;;;;;;7.75;4.15;;;10.50;99.90;;;;;;5053514;28;20045;-82
2022/03/14 06:21:22;;;;;;;8.13;4.03;;;10.50;99.90;;;;;;5052799;28;20037;-82
2022/03/14 06:23:48;;;;;;;7.78;4.05;;;10.50;99.90;;;;;;5052460;28;20090;-81
2022/03/14 06:26:14;;;;;;;8.40;4.32;;;10.50;99.90;;;;;;5054239;28;20041;-82
2022/03/14 06:28:41;;;;;;;8.13;4.45;;;10.50;99.90;;;;;;5053081;28;20508;-82
2022/03/14 06:31:09;;;;;;;7.85;4.20;;;10.40;99.90;;;;;;5052570;28;20033;-82
2022/03/14 06:33:34;;;;;;;9.05;3.97;;;10.40;99.90;;;;;;5053064;28;20029;-82
2022/03/14 06:36:00;;;;;;;7.63;3.88;;;10.40;99.90;;;;;;5052275;28;20573;-82
2022/03/14 06:38:26;;;;;;;8.93;4.25;;;10.40;99.90;;;;;;5052778;28;20037;-82
2022/03/14 06:40:54;;;;;;;8.20;4.63;;;10.40;99.90;;;;;;5052438;28;20079;-82
2022/03/14 06:43:21;;;;;;;9.40;4.55;;;10.40;99.90;;;;;;5052966;28;20064;-82
2022/03/14 06:45:47;;;;;;;8.90;4.55;;;10.40;99.90;;;;;;5035539;28;20072;-82
2022/03/14 06:48:13;;;;;;;8.57;4.82;;;10.40;99.90;;;;;;5052137;28;20463;-82
2022/03/14 06:50:39;;;;;;;10.63;4.60;;;10.40;99.90;;;;;;5052569;28;20733;-82
2022/03/14 06:53:04;;;;;;;8.88;5.07;;;10.40;99.90;;;;;;5052621;28;20537;-82
2022/03/14 06:55:30;;;;;;;8.77;4.70;;;10.40;99.90;;;;;;5052391;28;20414;-82
2022/03/14 06:57:57;;;;;;;8.85;4.68;;;10.40;99.90;;;;;;5051995;28;20146;-82
2022/03/14 07:00:23;;;;;;;8.93;4.85;;;10.40;99.90;;;;;;5051848;28;20048;-82
2022/03/14 07:02:48;;;;;;;9.15;5.25;;;10.40;99.90;;;;;;5052204;28;20044;-82
2022/03/14 07:05:20;;;;;;;8.80;4.78;;;10.40;99.90;;;;;;5052236;28;20445;-82
2022/03/14 07:07:46;;;;;;;9.05;5.18;;;10.40;99.90;;;;;;5051786;28;20033;-82
2022/03/14 07:10:13;;;;;;;8.73;5.20;;;10.40;99.90;;;;;;5052080;28;20037;-82
2022/03/14 07:12:44;;;;;;;9.43;5.10;;;10.40;99.90;;;;;;5051943;28;20053;-82
2022/03/14 07:15:11;;;;;;;8.82;5.13;;;10.40;99.90;;;;;;5052120;28;20041;-82
2022/03/14 07:17:36;;;;;;;11.65;5.35;;;10.40;99.90;;;;;;5035222;28;20124;-82
2022/03/14 07:20:03;;;;;;;8.93;5.15;;;10.40;99.90;;;;;;5051505;28;20127;-82
2022/03/14 07:22:31;;;;;;;9.30;5.43;;;10.40;99.90;;;;;;5051964;28;20045;-82
2022/03/14 07:24:57;;;;;;;9.60;4.90;;;10.30;99.90;;;;;;5051656;28;20037;-82
2022/03/14 07:27:23;;;;;;;9.48;5.32;;;10.40;99.90;;;;;;5034917;28;20067;-82
2022/03/14 07:29:48;;;;;;;9.10;5.28;;;10.40;99.90;;;;;;5051638;28;20478;-82
2022/03/14 07:32:14;;;;;;;8.93;5.20;;;10.40;99.90;;;;;;5051848;28;20041;-82
2022/03/14 07:34:40;;;;;;;9.02;4.90;;;10.40;99.90;;;;;;5034859;28;20048;-82
2022/03/14 07:37:05;;;;;;;9.73;5.53;;;10.40;99.90;;;;;;5051859;28;20071;-82
2022/03/14 07:39:31;;;;;;;10.85;6.13;;;10.40;99.90;;;;;;5051680;28;20460;-82
2022/03/14 07:41:56;;;;;;;9.73;5.95;;;10.40;99.90;;;;;;5051144;28;20044;-82
2022/03/14 07:44:22;;;;;;;8.40;4.78;;;10.40;99.90;;;;;;5051721;28;20041;-82
2022/03/14 07:46:48;;;;;;;10.95;6.32;;;10.40;99.90;;;;;;5048762;28;20048;-82
2022/03/14 07:49:14;;;;;;;9.55;5.93;;;10.40;99.90;;;;;;5050284;28;20509;-81
2022/03/14 07:51:40;;;;;;;10.18;5.15;;;10.50;99.90;;;;;;5033944;28;20079;-82
2022/03/14 07:54:06;;;;;;;9.13;5.50;;;10.50;99.90;;;;;;5055235;28;20036;-81
2022/03/14 07:56:31;;;;;;;9.95;5.65;;;10.50;99.90;;;;;;5070598;28;20045;-81
2022/03/14 07:58:57;;;;;;;10.48;6.05;;;10.50;99.90;;;;;;5070867;28;20066;-82
2022/03/14 08:01:22;;;;;;;10.93;6.07;;;10.50;99.90;;;;;;5070443;28;20041;-81
2022/03/14 08:03:48;;;;;;;9.40;6.07;;;10.50;99.90;;;;;;5070286;28;20529;-81
2022/03/14 08:06:23;;;;;;;12.68;6.15;;;10.50;99.90;;;;;;5070316;28;20048;-82
2022/03/14 08:08:50;;;;;;;10.10;6.50;;;10.50;99.90;;;;;;5070463;28;20097;-81
2022/03/14 08:11:17;;;;;;;10.13;5.65;;;10.50;99.90;;;;;;5053144;28;20091;-81
2022/03/14 08:13:43;;;;;;;9.90;6.03;;;10.50;99.90;;;;;;5052907;28;20081;-81
2022/03/14 08:16:09;;;;;;;9.80;5.93;;;10.60;99.90;;;;;;5070240;28;20131;-81
2022/03/14 08:18:35;;;;;;;9.98;6.10;;;10.60;99.90;;;;;;5070235;28;20051;-81
2022/03/14 08:21:01;;;;;;;11.30;7.30;;;10.50;99.90;;;;;;5070127;28;20125;-81
2022/03/14 08:23:27;;;;;;;11.07;6.85;;;10.50;99.90;;;;;;5053660;28;20072;-81
2022/03/14 08:25:56;;;;;;;11.60;7.22;;;10.50;99.90;;;;;;5070152;28;20413;-81
2022/03/14 08:28:22;;;;;;;10.73;7.00;;;10.50;99.90;;;;;;5069877;28;20072;-81
2022/03/14 08:30:48;;;;;;;10.38;6.95;;;10.50;99.90;;;;;;5070410;28;20078;-81
2022/03/14 08:33:21;;;;;;;11.40;7.32;;;10.50;99.90;;;;;;5088270;28;20389;-80
2022/03/14 08:35:47;;;;;;;10.20;6.88;;;10.50;99.90;;;;;;5086681;28;20108;-81
2022/03/14 08:38:13;;;;;;;10.95;7.10;;;10.50;99.90;;;;;;5070509;28;20044;-80
2022/03/14 08:40:39;;;;;;;10.88;7.72;;;10.50;99.90;;;;;;5069279;28;20040;-80
2022/03/14 08:43:05;;;;;;;10.05;7.35;;;10.50;99.90;;;;;;5086572;28;20516;-81
2022/03/14 08:45:30;;;;;;;10.45;7.20;;;10.50;99.90;;;;;;5086713;28;20068;-80
2022/03/14 08:47:56;;;;;;;12.20;8.52;;;10.50;99.90;;;;;;5069850;28;20036;-81
2022/03/14 08:50:22;;;;;;;11.95;8.60;;;10.50;99.90;;;;;;5087015;28;20170;-81
2022/03/14 08:52:48;;;;;;;13.77;9.13;;;10.50;99.90;;;;;;5086138;28;20070;-81
2022/03/14 08:55:14;;;;;;;12.55;8.70;;;10.40;99.90;;;;;;5085806;28;20040;-82
2022/03/14 08:57:41;;;;;;;12.60;8.88;;;10.40;99.90;;;;;;5086424;28;20032;-81
2022/03/14 09:00:08;;;;;;;12.60;9.30;;;10.30;99.90;;;;;;5086255;28;20036;-81
2022/03/14 09:02:34;;;;;;;12.70;9.00;;;10.30;99.90;;;;;;5086162;28;20048;-81
2022/03/14 09:05:00;;;;;;;14.13;9.55;;;10.20;99.90;;;;;;5086512;28;20037;-81
2022/03/14 09:07:26;;;;;;;12.82;9.48;;;10.20;99.90;;;;;;5086722;28;20127;-81
2022/03/14 09:09:53;;;;;;;14.48;9.60;;;10.00;99.90;;;;;;5085984;28;20127;-82
2022/03/14 09:12:19;;;;;;;15.73;11.07;;;10.00;99.90;;;;;;5086476;28;20044;-82
2022/03/14 09:14:46;;;;;;;16.60;11.93;;;9.90;99.90;;;;;;5085896;28;20036;-81
2022/03/14 09:17:12;;;;;;;15.95;11.75;;;9.90;99.90;;;;;;5086165;28;20375;-82
2022/03/14 09:19:38;;;;;;;18.40;12.98;;;9.80;99.90;;;;;;5069643;28;20181;-81
2022/03/14 09:22:08;;;;;;;16.83;12.18;;;9.70;99.90;;;;;;5085694;28;20576;-81
2022/03/14 09:24:36;;;;;;;18.15;13.52;;;9.70;99.90;;;;;;5076977;28;20050;-81
2022/03/14 09:27:02;;;;;;;19.17;12.82;;;9.70;99.90;;;;;;5066015;28;20127;-81
2022/03/14 09:29:28;;;;;;;18.05;12.77;;;9.70;99.90;;;;;;5065889;28;20139;-81
2022/03/14 09:31:55;;;;;;;21.00;14.60;;;9.70;99.90;;;;;;5065146;28;20186;-82
2022/03/14 09:34:21;;;;;;;20.42;13.65;;;9.70;99.90;;;;;;5066991;28;20040;-81
2022/03/14 09:36:47;;;;;;;18.08;13.50;;;9.70;99.90;;;;;;5065503;28;20039;-81
2022/03/14 09:39:14;;;;;;;19.30;12.95;;;9.70;99.90;;;;;;5065415;28;20047;-81
2022/03/14 09:41:45;;;;;;;14.70;9.60;;;9.70;99.90;;;;;;5048329;28;20037;-81
2022/03/14 09:44:15;;;;;;;17.35;10.63;;;9.70;99.90;;;;;;5055432;28;20045;-81
2022/03/14 09:46:44;;;;;;;15.98;9.60;;;9.60;99.90;;;;;;5035764;28;20461;-81
2022/03/14 09:49:12;;;;;;;13.23;8.20;;;9.60;99.90;;;;;;5035789;28;20056;-82
2022/03/14 09:51:39;;;;;;;16.30;10.07;;;9.60;99.90;;;;;;5052208;28;20037;-82
2022/03/14 09:54:09;;;;;;;18.15;11.13;;;9.60;99.90;;;;;;5066380;28;20110;-82
2022/03/14 09:56:37;;;;;;;15.35;10.70;;;9.60;99.90;;;;;;5071858;28;20564;-81
2022/03/14 09:59:04;;;;;;;17.23;10.88;;;9.50;99.90;;;;;;5072023;28;20041;-82
2022/03/14 10:01:30;;;;;;;17.92;10.88;;;9.60;99.90;;;;;;5054389;28;20086;-82
2022/03/14 10:03:56;;;;;;;16.50;11.75;;;9.50;99.90;;;;;;5071886;28;20041;-82
2022/03/14 10:06:22;;;;;;;16.50;11.52;;;9.50;99.90;;;;;;5071372;28;20090;-82
2022/03/14 10:08:48;;;;;;;19.52;11.15;;;9.50;99.90;;;;;;5060814;28;20521;-82
2022/03/14 10:11:13;;;;;;;19.50;12.07;;;9.60;99.90;;;;;;5062467;28;20036;-82
2022/03/14 10:13:39;;;;;;;18.70;11.32;;;9.50;99.90;;;;;;5060885;28;20048;-82
2022/03/14 10:16:06;;;;;;;17.45;10.93;;;9.50;99.90;;;;;;5061381;28;20573;-81
2022/03/14 10:19:01;;;;;;;17.77;10.25;;;9.50;99.90;;;;;;5037537;28;20033;-82
2022/03/14 10:21:30;;;;;;;20.60;10.93;;;9.50;99.90;;;;;;5012963;28;20056;-81
2022/03/14 10:23:59;;;;;;;19.05;10.85;;;9.50;99.90;;;;;;5013940;28;20119;-82
2022/03/14 10:26:25;;;;;;;16.40;9.38;;;9.50;99.90;;;;;;4997708;28;20049;-82
2022/03/14 10:28:56;;;;;;;18.15;9.68;;;9.50;99.90;;;;;;5014126;28;20045;-82
2022/03/14 10:31:34;;;;;;;16.45;9.00;;;9.50;99.90;;;;;;5013314;28;20568;-81
2022/03/14 10:34:04;;;;;;;22.70;10.25;;;9.50;99.90;;;;;;5013661;28;20052;-81
2022/03/14 10:36:50;;;;;;;14.35;8.52;;;9.50;99.90;;;;;;5013953;28;20037;-82
2022/03/14 10:39:22;;;;;;;14.88;8.68;;;9.60;99.90;;;;;;5014110;28;20091;-81
2022/03/14 10:42:04;;;;;;;15.95;8.10;;;9.60;99.90;;;;;;5012929;28;20052;-82
2022/03/14 10:44:30;;;;;;;16.38;7.65;;;9.60;99.90;;;;;;5014156;28;20130;-82
2022/03/14 10:47:00;;;;;;;20.77;8.52;;;9.60;99.90;;;;;;4997435;28;20164;-81
2022/03/14 10:49:31;;;;;;;18.20;7.97;;;9.70;99.90;;;;;;5014049;28;20045;-82
2022/03/14 10:51:59;;;;;;;18.83;8.00;;;9.70;99.90;;;;;;5013043;28;20045;-82
2022/03/14 10:54:25;;;;;;;15.50;7.38;;;9.70;99.90;;;;;;5011920;28;20037;-82
2022/03/14 10:57:04;;;;;;;15.70;6.68;;;9.80;99.90;;;;;;5012640;28;20406;-81
2022/03/14 10:59:41;;;;;;;13.63;6.80;;;9.80;99.90;;;;;;5068656;28;20045;-81
2022/03/14 11:02:10;;;;;;;15.73;6.28;;;9.80;99.90;;;;;;5070218;28;20498;-81
2022/03/14 11:04:49;;;;;;;13.05;5.38;;;9.90;99.90;;;;;;5053370;28;20040;-81
2022/03/14 11:07:17;;;;;;;13.88;5.60;;;9.90;99.90;;;;;;5069203;28;20040;-81
2022/03/14 11:09:46;;;;;;;12.75;5.15;;;9.90;99.90;;;;;;5053487;28;20040;-81
2022/03/14 11:12:18;;;;;;;15.25;5.60;;;10.00;99.90;;;;;;5070475;28;20044;-81
2022/03/14 11:14:51;;;;;;;16.38;5.55;;;10.00;99.90;;;;;;5070782;28;20036;-81
2022/03/14 11:17:23;;;;;;;15.05;5.85;;;10.00;99.90;;;;;;5070574;28;20072;-81
2022/03/14 11:19:50;;;;;;;13.07;4.38;;;10.10;99.90;;;;;;5070138;28;20662;-82
2022/03/14 11:22:17;;;;;;;14.40;4.38;;;10.10;99.90;;;;;;5070165;28;20147;-82
2022/03/14 11:24:48;;;;;;;13.43;4.57;;;10.20;99.90;;;;;;5052378;28;20052;-82
2022/03/14 11:27:19;;;;;;;12.95;4.75;;;10.20;99.90;;;;;;5053741;28;20044;-82
2022/03/14 11:29:46;;;;;;;13.93;4.35;;;10.30;99.90;;;;;;5070682;28;20152;-82
2022/03/14 11:32:15;;;;;;;13.85;4.10;;;10.30;99.90;;;;;;5053399;28;20521;-82
2022/03/14 11:34:41;;;;;;;14.23;4.35;;;10.30;99.90;;;;;;5070309;28;20453;-82
2022/03/14 11:37:08;;;;;;;17.73;4.20;;;10.40;99.90;;;;;;5053422;28;20072;-82
2022/03/14 11:39:35;;;;;;;12.20;4.45;;;10.40;99.90;;;;;;5070479;28;20048;-82
2022/03/14 11:42:00;;;;;;;11.93;4.07;;;10.40;99.90;;;;;;5069395;28;20525;-82
2022/03/14 11:44:27;;;;;;;12.43;4.55;;;10.50;99.90;;;;;;5053788;28;20040;-82
2022/03/14 11:46:54;;;;;;;12.55;4.15;;;10.50;99.90;;;;;;5068984;28;20056;-82
2022/03/14 11:49:23;;;;;;;11.65;4.53;;;10.50;99.90;;;;;;5070354;28;20169;-82
2022/03/14 11:51:48;;;;;;;15.55;5.45;;;10.50;99.90;;;;;;5053458;28;20387;-82
2022/03/14 11:54:15;;;;;;;12.20;6.45;;;10.50;99.90;;;;;;5068659;28;20566;-82
2022/03/14 11:56:54;;;;;;;15.77;6.45;;;10.50;99.90;;;;;;5068190;28;20036;-82
2022/03/14 11:59:28;;;;;;;13.00;5.50;;;10.60;99.90;;;;;;5069771;28;20468;-82
2022/03/14 12:01:58;;;;;;;12.77;5.82;;;10.60;99.90;;;;;;5069559;28;20044;-82
2022/03/14 12:04:32;;;;;;;15.70;6.90;;;10.70;99.90;;;;;;5070000;28;20049;-82
2022/03/14 12:06:58;;;;;;;16.50;7.63;;;10.80;99.90;;;;;;5053005;28;20560;-81
2022/03/14 12:09:23;;;;;;;17.17;8.02;;;10.90;99.90;;;;;;5070074;28;20076;-82
2022/03/14 12:11:53;;;;;;;14.40;7.18;;;11.00;99.90;;;;;;5052822;28;20048;-82
2022/03/14 12:14:50;;;;;;;15.73;8.52;;;11.10;99.90;;;;;;5069878;28;20110;-82
2022/03/14 12:17:16;;;;;;;16.35;9.43;;;11.20;99.90;;;;;;5065591;28;20408;-82
2022/03/14 12:19:50;;;;;;;16.27;9.55;;;11.20;99.90;;;;;;5053734;28;20552;-82
2022/03/14 12:22:32;;;;;;;14.55;9.55;;;11.30;99.90;;;;;;5069677;28;20055;-82
2022/03/14 12:25:00;;;;;;;18.52;10.20;;;11.30;99.90;;;;;;5070101;28;20040;-82
2022/03/14 12:27:29;;;;;;;18.95;11.23;;;11.30;99.90;;;;;;5052711;28;20047;-82
2022/03/14 12:29:57;;;;;;;19.63;10.85;;;11.30;99.90;;;;;;5069643;28;20040;-82
2022/03/14 12:32:35;;;;;;;18.95;11.95;;;11.40;99.90;;;;;;5069533;28;20043;-82
2022/03/14 12:35:03;;;;;;;20.50;12.32;;;11.40;99.90;;;;;;5069662;28;20090;-82
2022/03/14 12:37:51;;;;;;;17.00;11.60;;;11.40;99.90;;;;;;5069625;28;20041;-82
2022/03/14 12:40:20;;;;;;;17.60;11.65;;;11.40;99.90;;;;;;5069997;28;20075;-82
2022/03/14 12:43:08;;;;;;;16.92;11.90;;;11.50;99.90;;;;;;5066978;28;20109;-82